Главная страница
METAR-TAF:

METAR-TAF

Аэропорты :

Olean, Нью-Йорк, США

широта: 42-14-28N, долгота: 078-22-17W, высота над уровнем моря: 651 м

Текущие метеонаблюдения

Эта сводка был подготовлена 20 минут назад, в 02:15 UTC
Ветер 9 Узел от западно-северо-западный с порывами до 19 Узел
Температура -17°C
Влажность 77%
Давление 1028 hPa
Видимость: 16.1 км
ясное небо

METAR: KOLE 220215Z AUTO 30009G19KT 10SM CLR M17/M20 A3035 RMK AO2

Время: 21:35 (02:35 UTC)


TAF: отсутствует

Метеонаблюдения и прогнозы для более 4000 аэропортов (сводки METAR и TAF).

Имеющиеся станции представлены на карте желтыми и красными точками.

Чтобы увидеть название станции, наведите на нее мышь.

Затем щелкните, чтобы увидеть метеонаблюдения и метеопрогнозы.

Управление картой: чтобы увеличить масштаб, щелкните зеленые кнопки с черным крестиком; чтобы уменьшить масштаб, щелкните зеленую кнопку с тире; для просмотра соседних карт щелкайте зеленые стрелки.


METAR-TAF: